Time;durP1;ratioP1;P1;durP2;ratioP2;P2;SDS_P1;SDS_P2;PMS_P1;PMS_P2;Temp;Humidity;BMP_temperature;BMP_pressure;BME280_temperature;BME280_humidity;BME280_pressure;Samples;Min_cycle;Max_cycle;Signal;HPM_P1;HPM_P2
2022/07/07 00:02:13;;;;;;;10.20;2.92;;;23.60;49.10;;;;;;4859487;29;20045;-77
2022/07/07 00:04:39;;;;;;;10.40;2.53;;;23.60;49.00;;;;;;4859026;29;20030;-77
2022/07/07 00:07:05;;;;;;;8.38;2.40;;;23.60;49.30;;;;;;4860389;29;20058;-77
2022/07/07 00:09:32;;;;;;;10.98;3.55;;;23.60;49.20;;;;;;4860571;29;20441;-78
2022/07/07 00:11:58;;;;;;;12.70;2.30;;;23.60;49.10;;;;;;4860397;29;20025;-77
2022/07/07 00:14:24;;;;;;;9.00;2.30;;;23.60;49.50;;;;;;4859892;29;20428;-77
2022/07/07 00:16:53;;;;;;;7.87;2.30;;;23.50;49.30;;;;;;4860300;29;20034;-76
2022/07/07 00:19:18;;;;;;;10.13;2.80;;;23.60;49.30;;;;;;4858736;29;20751;-76
2022/07/07 00:21:44;;;;;;;17.40;3.35;;;23.60;49.60;;;;;;4859198;29;20112;-77
2022/07/07 00:24:10;;;;;;;8.65;2.33;;;23.60;49.60;;;;;;4858233;29;20086;-77
2022/07/07 00:26:36;;;;;;;11.00;2.70;;;23.60;49.50;;;;;;4860468;29;20033;-77
2022/07/07 00:29:02;;;;;;;13.07;2.80;;;23.60;49.60;;;;;;4857958;29;20033;-77
2022/07/07 00:31:28;;;;;;;12.68;2.75;;;23.60;49.80;;;;;;4860342;29;20657;-77
2022/07/07 00:33:54;;;;;;;11.52;2.75;;;23.60;49.70;;;;;;4860847;29;20401;-78
2022/07/07 00:36:20;;;;;;;11.57;2.47;;;23.60;49.60;;;;;;4859474;29;20430;-78
2022/07/07 00:38:45;;;;;;;12.35;3.50;;;23.60;49.70;;;;;;4858870;29;20033;-78
2022/07/07 00:41:11;;;;;;;12.00;2.85;;;23.60;49.70;;;;;;4842230;29;20038;-78
2022/07/07 00:43:41;;;;;;;11.70;2.92;;;23.60;49.80;;;;;;4859300;29;20048;-79
2022/07/07 00:46:08;;;;;;;10.48;2.78;;;23.60;49.60;;;;;;4857680;29;20034;-78
2022/07/07 00:48:37;;;;;;;9.38;2.67;;;23.60;49.80;;;;;;4857816;29;20053;-79
2022/07/07 00:51:18;;;;;;;10.52;2.22;;;23.60;49.60;;;;;;4840732;29;20069;-78
2022/07/07 00:53:44;;;;;;;8.90;2.35;;;23.60;49.60;;;;;;4855288;29;20046;-78
2022/07/07 00:56:10;;;;;;;8.27;2.20;;;23.60;49.80;;;;;;4860596;29;20161;-78
2022/07/07 00:58:36;;;;;;;8.38;2.75;;;23.60;49.80;;;;;;4859489;29;20529;-79
2022/07/07 01:01:03;;;;;;;7.10;2.80;;;23.60;49.70;;;;;;4859028;29;20048;-78
2022/07/07 01:03:29;;;;;;;7.97;2.40;;;23.60;49.90;;;;;;4859932;29;20094;-78
2022/07/07 01:05:57;;;;;;;7.88;2.20;;;23.60;50.50;;;;;;4859737;29;20061;-78
2022/07/07 01:08:23;;;;;;;7.35;2.20;;;23.60;49.90;;;;;;4859489;29;20024;-79
2022/07/07 01:10:49;;;;;;;9.82;2.50;;;23.60;49.90;;;;;;4859740;29;20120;-78
2022/07/07 01:13:14;;;;;;;7.85;2.33;;;23.60;49.90;;;;;;4859016;29;20033;-78
2022/07/07 01:15:40;;;;;;;5.10;2.20;;;23.60;49.70;;;;;;4859939;29;20391;-78
2022/07/07 01:18:06;;;;;;;6.68;2.05;;;23.60;49.90;;;;;;4860280;29;20478;-78
2022/07/07 01:20:33;;;;;;;6.57;2.40;;;23.60;50.00;;;;;;4859641;29;20112;-77
2022/07/07 01:22:59;;;;;;;8.50;2.20;;;23.60;49.90;;;;;;4858619;29;20121;-78
2022/07/07 01:25:25;;;;;;;8.07;2.60;;;23.60;50.00;;;;;;4858962;29;20093;-78
2022/07/07 01:27:51;;;;;;;9.70;2.25;;;23.70;50.10;;;;;;4860353;29;20473;-78
2022/07/07 01:30:17;;;;;;;6.50;2.60;;;23.60;49.80;;;;;;4856919;29;20085;-77
2022/07/07 01:32:43;;;;;;;6.25;2.08;;;23.60;50.10;;;;;;4860273;29;20029;-78
2022/07/07 01:35:10;;;;;;;10.18;2.30;;;23.60;50.30;;;;;;4856962;29;20372;-77
2022/07/07 01:37:36;;;;;;;7.50;2.22;;;23.60;50.20;;;;;;4859260;29;20040;-78
2022/07/07 01:40:04;;;;;;;4.50;1.77;;;23.60;50.20;;;;;;4860297;29;20030;-78
2022/07/07 01:42:30;;;;;;;9.18;2.30;;;23.60;50.20;;;;;;4857295;29;20029;-78
2022/07/07 01:44:56;;;;;;;8.73;2.70;;;23.60;50.50;;;;;;4860105;29;20032;-79
2022/07/07 01:47:24;;;;;;;7.63;1.95;;;23.60;50.50;;;;;;4857146;29;20030;-77
2022/07/07 01:49:50;;;;;;;7.20;2.20;;;23.60;50.40;;;;;;4857779;29;20041;-78
2022/07/07 01:52:16;;;;;;;6.88;2.08;;;23.60;50.60;;;;;;4859255;29;20037;-78
2022/07/07 01:54:43;;;;;;;9.90;1.80;;;23.60;50.60;;;;;;4858538;29;20025;-78
2022/07/07 01:57:09;;;;;;;7.18;2.08;;;23.60;50.60;;;;;;4858029;29;20126;-77
2022/07/07 01:59:37;;;;;;;8.02;2.10;;;23.60;50.70;;;;;;4858837;29;20094;-78
2022/07/07 02:02:03;;;;;;;6.88;2.10;;;23.60;50.80;;;;;;4865363;29;20398;-78
2022/07/07 02:04:29;;;;;;;6.90;2.08;;;23.60;50.60;;;;;;4859710;29;20041;-78
2022/07/07 02:06:55;;;;;;;7.55;2.10;;;23.60;50.80;;;;;;4858717;29;20470;-79
2022/07/07 02:09:21;;;;;;;8.95;2.17;;;23.60;50.90;;;;;;4858295;29;20113;-78
2022/07/07 02:11:47;;;;;;;6.93;2.00;;;23.60;50.90;;;;;;4857635;29;20029;-78
2022/07/07 02:14:13;;;;;;;6.05;2.25;;;23.60;51.00;;;;;;4858135;29;20053;-78
2022/07/07 02:16:39;;;;;;;6.03;1.90;;;23.60;50.90;;;;;;4857839;29;20502;-78
2022/07/07 02:19:06;;;;;;;5.00;2.08;;;23.60;51.00;;;;;;4858981;29;20045;-78
2022/07/07 02:21:34;;;;;;;8.73;1.90;;;23.60;50.90;;;;;;4858435;29;20129;-78
2022/07/07 02:24:00;;;;;;;10.43;2.42;;;23.60;51.00;;;;;;4858045;29;20030;-78
2022/07/07 02:26:26;;;;;;;5.80;2.03;;;23.60;51.10;;;;;;4841473;29;20555;-78
2022/07/07 02:28:52;;;;;;;11.35;1.80;;;23.60;51.30;;;;;;4858819;29;20026;-78
2022/07/07 02:31:18;;;;;;;4.80;1.67;;;23.60;51.00;;;;;;4871655;29;20169;-79
2022/07/07 02:33:45;;;;;;;7.93;1.90;;;23.60;51.00;;;;;;4853979;29;20038;-78
2022/07/07 02:36:11;;;;;;;9.13;2.10;;;23.60;51.10;;;;;;4857842;29;20136;-78
2022/07/07 02:38:38;;;;;;;3.90;1.80;;;23.60;51.00;;;;;;4842339;29;20057;-77
2022/07/07 02:41:04;;;;;;;8.85;2.47;;;23.60;51.10;;;;;;4858351;29;20378;-78
2022/07/07 02:43:30;;;;;;;6.30;2.17;;;23.60;51.10;;;;;;4856774;29;20106;-78
2022/07/07 02:45:56;;;;;;;6.95;2.00;;;23.60;51.10;;;;;;4857624;29;20145;-78
2022/07/07 02:48:24;;;;;;;4.93;2.17;;;23.60;51.20;;;;;;4857870;29;20536;-77
2022/07/07 02:50:51;;;;;;;4.93;1.80;;;23.60;51.20;;;;;;4857439;29;20094;-77
2022/07/07 02:53:18;;;;;;;6.90;1.70;;;23.60;51.20;;;;;;4857601;29;20037;-77
2022/07/07 02:55:45;;;;;;;7.13;2.08;;;23.60;51.40;;;;;;4841925;29;20061;-77
2022/07/07 02:58:12;;;;;;;5.88;1.63;;;23.60;51.40;;;;;;4857213;29;20033;-77
2022/07/07 03:00:38;;;;;;;5.50;1.77;;;23.60;51.50;;;;;;4858040;29;20382;-77
2022/07/07 03:03:07;;;;;;;6.10;1.75;;;23.60;51.70;;;;;;4862066;29;20032;-78
2022/07/07 03:05:33;;;;;;;5.10;1.67;;;23.60;51.60;;;;;;4844779;29;20512;-77
2022/07/07 03:07:59;;;;;;;5.88;1.80;;;23.60;51.60;;;;;;4860445;29;20324;-77
2022/07/07 03:10:26;;;;;;;6.68;2.13;;;23.60;51.70;;;;;;4860181;29;20047;-78
2022/07/07 03:12:52;;;;;;;7.80;2.03;;;23.60;51.60;;;;;;4855844;29;20037;-78
2022/07/07 03:15:18;;;;;;;6.70;2.00;;;23.60;51.70;;;;;;4862485;29;20057;-77
2022/07/07 03:17:54;;;;;;;7.97;1.70;;;23.60;51.80;;;;;;4888033;23;20448;-91
2022/07/07 03:20:22;;;;;;;5.97;1.40;;;23.60;51.80;;;;;;4806569;29;20074;-91
2022/07/07 03:23:21;;;;;;;6.35;2.13;;;23.60;52.50;;;;;;4813725;29;20035;-92
2022/07/07 03:25:47;;;;;;;6.18;1.45;;;23.60;51.80;;;;;;4817471;29;20047;-91
2022/07/07 03:28:14;;;;;;;4.68;2.00;;;23.60;51.60;;;;;;4807573;29;20068;-91
2022/07/07 03:30:39;;;;;;;5.30;1.75;;;23.60;51.80;;;;;;4810280;29;20492;-90
2022/07/07 03:33:13;;;;;;;5.18;1.80;;;23.60;51.80;;;;;;4809738;29;20039;-91
2022/07/07 03:35:40;;;;;;;6.30;2.13;;;23.50;51.70;;;;;;4810072;29;20030;-89
2022/07/07 03:38:06;;;;;;;3.95;1.40;;;23.60;51.90;;;;;;4808928;29;20058;-90
2022/07/07 03:40:34;;;;;;;6.80;1.83;;;23.60;51.60;;;;;;4810719;29;20059;-90
2022/07/07 03:43:00;;;;;;;3.65;1.77;;;23.50;51.90;;;;;;4809355;29;20038;-91
2022/07/07 03:45:26;;;;;;;7.95;1.95;;;23.60;51.70;;;;;;4809420;29;20058;-91
2022/07/07 03:47:52;;;;;;;6.38;2.60;;;23.50;51.80;;;;;;4800116;29;20111;-90
2022/07/07 03:50:20;;;;;;;7.30;1.93;;;23.60;51.80;;;;;;4811119;29;20056;-89
2022/07/07 03:52:46;;;;;;;4.72;2.15;;;23.60;52.00;;;;;;4815655;29;20039;-88
2022/07/07 03:55:12;;;;;;;3.60;1.48;;;23.60;51.90;;;;;;4809752;29;20097;-91
2022/07/07 03:57:44;;;;;;;4.75;2.00;;;23.60;51.70;;;;;;4823148;29;20384;-90
2022/07/07 04:00:11;;;;;;;5.13;1.67;;;23.60;52.00;;;;;;4822524;29;20042;-92
2022/07/07 04:02:37;;;;;;;6.03;1.58;;;23.60;52.20;;;;;;4808936;29;20034;-91
2022/07/07 04:05:53;;;;;;;5.18;1.80;;;23.50;51.90;;;;;;4823193;29;20099;-90
2022/07/07 04:08:19;;;;;;;5.35;1.65;;;23.50;51.90;;;;;;4802403;29;20118;-92
2022/07/07 04:10:47;;;;;;;7.05;1.73;;;23.60;52.20;;;;;;4808936;29;20050;-90
2022/07/07 04:13:13;;;;;;;8.43;1.70;;;23.50;51.90;;;;;;4822168;29;20043;-90
2022/07/07 04:15:39;;;;;;;4.93;1.73;;;23.60;52.10;;;;;;4822875;29;20046;-89
2022/07/07 04:18:05;;;;;;;5.47;1.90;;;23.60;52.30;;;;;;4814000;29;20038;-88
2022/07/07 04:20:31;;;;;;;6.85;2.58;;;23.50;52.20;;;;;;4821793;29;20051;-89
2022/07/07 04:22:57;;;;;;;5.50;1.88;;;23.60;52.20;;;;;;4808600;29;20065;-88
2022/07/07 04:25:23;;;;;;;4.20;1.73;;;23.60;52.20;;;;;;4814710;29;20038;-90
2022/07/07 04:27:49;;;;;;;6.50;1.90;;;23.60;52.20;;;;;;4808116;29;20030;-91
2022/07/07 04:30:15;;;;;;;4.03;1.75;;;23.60;52.20;;;;;;4808847;29;20083;-91
2022/07/07 04:32:42;;;;;;;6.75;1.70;;;23.60;52.30;;;;;;4783801;29;20113;-91
2022/07/07 04:35:09;;;;;;;6.10;1.88;;;23.60;52.30;;;;;;4786982;29;20034;-90
2022/07/07 04:37:35;;;;;;;5.70;1.75;;;23.60;52.50;;;;;;4821731;29;20061;-90
2022/07/07 04:40:03;;;;;;;7.70;1.75;;;23.60;52.60;;;;;;4798829;29;20049;-91
2022/07/07 04:42:29;;;;;;;4.10;1.63;;;23.60;52.80;;;;;;4807022;29;20047;-90
2022/07/07 04:44:56;;;;;;;4.32;1.90;;;23.60;52.70;;;;;;4783047;29;20035;-90
2022/07/07 04:47:25;;;;;;;8.63;1.70;;;23.50;52.40;;;;;;4803850;29;20029;-90
2022/07/07 04:49:54;;;;;;;4.85;1.60;;;23.60;52.50;;;;;;4805847;29;20039;-91
2022/07/07 04:52:20;;;;;;;4.05;1.80;;;23.60;52.50;;;;;;4807518;29;20133;-89
2022/07/07 04:54:46;;;;;;;5.93;2.20;;;23.50;52.50;;;;;;4789786;30;20405;-89
2022/07/07 04:57:12;;;;;;;7.20;2.20;;;23.60;52.70;;;;;;4790343;29;20038;-89
2022/07/07 04:59:41;;;;;;;5.65;2.30;;;23.50;52.90;;;;;;4806487;29;20499;-89
2022/07/07 05:02:07;;;;;;;10.63;2.72;;;23.50;52.80;;;;;;4800659;29;20066;-89
2022/07/07 05:04:38;;;;;;;6.78;2.00;;;23.50;52.90;;;;;;4790171;29;20035;-91
2022/07/07 05:07:04;;;;;;;4.53;1.73;;;23.50;52.80;;;;;;4777371;29;20035;-87
2022/07/07 05:09:30;;;;;;;7.05;2.03;;;23.50;52.80;;;;;;4798286;29;20284;-86
2022/07/07 05:11:56;;;;;;;6.82;2.47;;;23.50;53.00;;;;;;4776930;29;20046;-86
2022/07/07 05:14:22;;;;;;;9.18;2.65;;;23.50;52.90;;;;;;4798332;29;20035;-87
2022/07/07 05:16:47;;;;;;;6.47;1.92;;;23.50;53.00;;;;;;4777213;29;20062;-88
2022/07/07 05:19:13;;;;;;;7.70;2.08;;;23.50;52.90;;;;;;4794395;29;20050;-87
2022/07/07 05:21:39;;;;;;;7.35;1.95;;;23.50;53.10;;;;;;4795874;29;20042;-87
2022/07/07 05:24:05;;;;;;;8.30;2.10;;;23.50;53.00;;;;;;4789934;29;20165;-87
2022/07/07 05:26:31;;;;;;;4.15;1.80;;;23.50;53.10;;;;;;4804990;29;20039;-88
2022/07/07 05:28:57;;;;;;;6.18;1.92;;;23.50;53.10;;;;;;4805333;29;20396;-88
2022/07/07 05:31:22;;;;;;;4.50;2.10;;;23.50;53.20;;;;;;4805729;29;20125;-89
2022/07/07 05:33:48;;;;;;;7.75;1.98;;;23.50;53.10;;;;;;4805631;29;20507;-90
2022/07/07 05:36:14;;;;;;;7.80;2.10;;;23.50;53.00;;;;;;4805476;29;20043;-91
2022/07/07 05:38:40;;;;;;;6.63;2.10;;;23.50;53.20;;;;;;4784731;29;20035;-91
2022/07/07 05:41:06;;;;;;;4.70;2.17;;;23.50;53.10;;;;;;4805362;29;20047;-91
2022/07/07 05:43:32;;;;;;;8.63;2.53;;;23.50;53.20;;;;;;4775219;29;20077;-88
2022/07/07 05:45:58;;;;;;;4.13;1.75;;;23.50;53.10;;;;;;4805480;29;20050;-87
2022/07/07 05:48:24;;;;;;;8.30;1.92;;;23.50;53.20;;;;;;4796463;29;20492;-87
2022/07/07 05:50:50;;;;;;;9.63;1.90;;;23.50;53.10;;;;;;4789053;29;20099;-86
2022/07/07 05:53:16;;;;;;;3.90;1.67;;;23.50;53.10;;;;;;4798060;29;20522;-86
2022/07/07 05:55:42;;;;;;;5.25;1.70;;;23.50;53.20;;;;;;4789716;29;20063;-87
2022/07/07 05:58:07;;;;;;;6.97;2.03;;;23.50;53.00;;;;;;4774289;29;20134;-86
2022/07/07 06:00:33;;;;;;;4.35;1.90;;;23.50;53.00;;;;;;4806024;29;20042;-89
2022/07/07 06:02:59;;;;;;;8.85;2.30;;;23.50;53.00;;;;;;4805834;29;20019;-88
2022/07/07 06:05:25;;;;;;;9.55;2.17;;;23.50;53.00;;;;;;4806006;29;20041;-90
2022/07/07 06:07:51;;;;;;;8.98;2.65;;;23.50;52.90;;;;;;4805571;29;20035;-86
2022/07/07 06:10:17;;;;;;;7.05;2.20;;;23.50;52.90;;;;;;4777572;29;20122;-87
2022/07/07 06:12:43;;;;;;;6.18;2.00;;;23.50;53.00;;;;;;4790695;29;20160;-87
2022/07/07 06:15:10;;;;;;;7.57;2.13;;;23.50;53.00;;;;;;4804991;29;20100;-88
2022/07/07 06:17:36;;;;;;;7.78;1.95;;;23.50;53.20;;;;;;4792121;29;20515;-88
2022/07/07 06:20:02;;;;;;;6.93;1.98;;;23.50;53.20;;;;;;4786150;29;20039;-85
2022/07/07 06:22:28;;;;;;;5.93;2.17;;;23.50;53.50;;;;;;4783260;29;20065;-85
2022/07/07 06:24:54;;;;;;;7.00;2.08;;;23.50;53.10;;;;;;4805178;29;20031;-86
2022/07/07 06:27:21;;;;;;;5.78;1.92;;;23.50;53.20;;;;;;4804667;29;20550;-86
2022/07/07 06:29:47;;;;;;;5.28;2.00;;;23.50;53.70;;;;;;4804848;29;20115;-87
2022/07/07 06:32:16;;;;;;;6.57;1.70;;;23.50;53.20;;;;;;4805819;29;20042;-89
2022/07/07 06:34:43;;;;;;;7.28;2.35;;;23.50;53.40;;;;;;4820032;29;20019;-89
2022/07/07 06:37:09;;;;;;;7.00;2.10;;;23.50;53.40;;;;;;4818094;29;20023;-89
2022/07/07 06:39:34;;;;;;;6.55;2.30;;;23.50;53.50;;;;;;4805375;29;20038;-86
2022/07/07 06:42:00;;;;;;;5.60;1.85;;;23.50;53.50;;;;;;4805158;29;20043;-88
2022/07/07 06:44:32;;;;;;;9.23;2.30;;;23.50;53.50;;;;;;4819782;29;20027;-89
2022/07/07 06:46:59;;;;;;;7.93;2.75;;;23.50;53.80;;;;;;4805264;29;20039;-89
2022/07/07 06:49:28;;;;;;;13.10;2.30;;;23.50;53.70;;;;;;4805086;29;20088;-88
2022/07/07 06:51:54;;;;;;;11.13;2.40;;;23.50;54.10;;;;;;4804154;29;20035;-88
2022/07/07 06:54:20;;;;;;;5.00;1.85;;;23.50;54.00;;;;;;4805416;29;20038;-89
2022/07/07 06:56:46;;;;;;;5.15;1.88;;;23.50;53.90;;;;;;4804809;29;20043;-88
2022/07/07 06:59:12;;;;;;;8.98;2.40;;;23.50;54.00;;;;;;4804303;29;20100;-89
2022/07/07 07:01:38;;;;;;;6.43;2.25;;;23.50;54.00;;;;;;4804413;29;20485;-88
2022/07/07 07:04:07;;;;;;;7.38;2.00;;;23.50;54.00;;;;;;4805472;29;20113;-89
2022/07/07 07:06:33;;;;;;;7.32;2.25;;;23.50;54.10;;;;;;4805155;29;20277;-88
2022/07/07 07:08:59;;;;;;;4.45;1.90;;;23.50;54.00;;;;;;4807515;29;20113;-89
2022/07/07 07:11:26;;;;;;;11.07;2.45;;;23.50;54.00;;;;;;4804188;29;20122;-89
2022/07/07 07:13:51;;;;;;;8.18;2.13;;;23.50;53.90;;;;;;4819062;29;20133;-88
2022/07/07 07:16:18;;;;;;;9.15;2.40;;;23.50;54.00;;;;;;4805233;29;20113;-88
2022/07/07 07:18:45;;;;;;;7.63;2.25;;;23.50;54.30;;;;;;4804964;29;20043;-89
2022/07/07 07:21:12;;;;;;;6.72;2.10;;;23.50;54.10;;;;;;4817974;29;20092;-87
2022/07/07 07:23:38;;;;;;;7.45;2.20;;;23.50;53.90;;;;;;4817891;29;20031;-87
2022/07/07 07:26:05;;;;;;;6.65;2.13;;;23.50;54.00;;;;;;4802985;29;20038;-87
2022/07/07 07:28:31;;;;;;;10.02;1.92;;;23.50;54.10;;;;;;4803195;29;20054;-87
2022/07/07 07:30:57;;;;;;;7.50;2.13;;;23.50;54.20;;;;;;4806172;29;20042;-87
2022/07/07 07:33:23;;;;;;;4.18;1.95;;;23.50;54.10;;;;;;4818301;29;20096;-87
2022/07/07 07:35:49;;;;;;;8.73;2.50;;;23.50;54.30;;;;;;4815539;29;20046;-87
2022/07/07 07:38:15;;;;;;;8.73;2.25;;;23.50;54.40;;;;;;4815087;29;20043;-88
2022/07/07 07:40:41;;;;;;;6.95;2.15;;;23.50;54.40;;;;;;4792695;29;20051;-87
2022/07/07 07:43:06;;;;;;;12.07;2.60;;;23.50;54.50;;;;;;4805997;29;20041;-87
2022/07/07 07:45:32;;;;;;;7.00;2.13;;;23.50;54.60;;;;;;4805698;29;20054;-87
2022/07/07 07:48:01;;;;;;;6.65;2.08;;;23.50;54.40;;;;;;4791297;29;20071;-87
2022/07/07 07:50:27;;;;;;;9.68;2.63;;;23.50;54.00;;;;;;4807462;29;20076;-88
2022/07/07 07:52:53;;;;;;;4.43;2.10;;;23.50;53.90;;;;;;4804714;29;20088;-89
2022/07/07 07:55:21;;;;;;;5.35;2.08;;;23.50;53.80;;;;;;4790304;30;20041;-87
2022/07/07 07:57:48;;;;;;;5.30;2.08;;;23.50;53.80;;;;;;4813767;29;20484;-86
2022/07/07 08:00:17;;;;;;;12.00;2.92;;;23.50;53.90;;;;;;4821539;29;20058;-87
2022/07/07 08:02:44;;;;;;;4.68;2.20;;;23.50;54.00;;;;;;4807034;29;20121;-86
2022/07/07 08:05:11;;;;;;;11.00;2.58;;;23.50;53.80;;;;;;4813204;29;20069;-72
2022/07/07 08:07:38;;;;;;;6.60;2.10;;;23.50;54.70;;;;;;4806007;29;20492;-73
2022/07/07 08:10:04;;;;;;;4.35;1.75;;;23.50;55.00;;;;;;4814030;29;20058;-74
2022/07/07 08:12:30;;;;;;;20.33;12.18;;;23.40;55.70;;;;;;4819684;29;20043;-74
2022/07/07 08:14:56;;;;;;;26.88;18.98;;;23.30;56.30;;;;;;4802686;29;20570;-71
2022/07/07 08:17:22;;;;;;;11.25;6.28;;;23.20;57.50;;;;;;4807144;29;20082;-71
2022/07/07 08:19:49;;;;;;;4.35;2.80;;;22.90;58.00;;;;;;4805838;29;20485;-78
2022/07/07 08:22:15;;;;;;;10.70;2.40;;;22.50;60.00;;;;;;4806488;29;20041;-73
2022/07/07 08:24:41;;;;;;;41.42;27.02;;;22.10;60.80;;;;;;4819248;29;20050;-74
2022/07/07 08:27:07;;;;;;;72.78;55.58;;;22.10;61.20;;;;;;4817054;29;20066;-74
2022/07/07 08:29:37;;;;;;;64.72;46.80;;;21.90;61.40;;;;;;4799320;29;20583;-74
2022/07/07 08:32:10;;;;;;;33.97;24.75;;;21.90;61.80;;;;;;4817321;29;20054;-74
2022/07/07 08:34:37;;;;;;;18.13;11.10;;;21.80;62.20;;;;;;4803531;29;20033;-73
2022/07/07 08:37:04;;;;;;;13.85;7.85;;;21.80;62.20;;;;;;4806396;29;20044;-74
2022/07/07 08:39:30;;;;;;;16.20;8.82;;;22.00;61.70;;;;;;4806256;29;20095;-78
2022/07/07 08:41:56;;;;;;;20.35;10.75;;;22.20;61.60;;;;;;4819868;29;20110;-82
2022/07/07 08:44:21;;;;;;;21.23;7.45;;;22.40;60.30;;;;;;4806523;29;20121;-83
2022/07/07 08:46:47;;;;;;;16.58;6.65;;;22.60;60.90;;;;;;4805913;29;20031;-83
2022/07/07 08:49:13;;;;;;;30.45;7.85;;;22.80;59.40;;;;;;4806332;29;20075;-82
2022/07/07 08:51:44;;;;;;;22.70;7.53;;;22.90;62.40;;;;;;4816535;29;20039;-81
2022/07/07 08:54:12;;;;;;;24.38;7.68;;;23.00;60.90;;;;;;4803302;29;20035;-81
2022/07/07 08:56:38;;;;;;;23.73;7.45;;;23.10;64.00;;;;;;4805361;29;20373;-77
2022/07/07 08:59:06;;;;;;;26.60;7.85;;;23.20;62.50;;;;;;4819552;29;20492;-78
2022/07/07 09:01:33;;;;;;;27.15;7.63;;;23.20;63.10;;;;;;4794264;29;20039;-81
2022/07/07 09:04:00;;;;;;;24.00;8.00;;;23.20;62.70;;;;;;4804566;29;20038;-78
2022/07/07 09:06:26;;;;;;;26.25;7.47;;;23.30;64.20;;;;;;4805161;29;20027;-84
2022/07/07 09:08:54;;;;;;;30.48;8.30;;;23.30;62.30;;;;;;4816035;29;20039;-75
2022/07/07 09:11:30;;;;;;;27.05;9.13;;;23.40;63.00;;;;;;4801707;29;20405;-74
2022/07/07 09:14:11;;;;;;;26.73;7.80;;;23.40;62.70;;;;;;4812909;29;20039;-71
2022/07/07 09:16:37;;;;;;;22.20;12.05;;;23.40;62.80;;;;;;4818681;29;20031;-70
2022/07/07 09:19:07;;;;;;;37.35;22.13;;;23.30;61.30;;;;;;4805247;29;20054;-71
2022/07/07 09:21:33;;;;;;;33.65;21.08;;;23.20;61.50;;;;;;4804905;29;20238;-75
2022/07/07 09:24:00;;;;;;;35.63;22.05;;;23.20;64.00;;;;;;4804739;29;20133;-75
2022/07/07 09:26:46;;;;;;;33.35;21.75;;;23.20;60.60;;;;;;4801101;29;20040;-74
2022/07/07 09:29:15;;;;;;;25.58;14.07;;;23.30;62.70;;;;;;4816030;29;20031;-75
2022/07/07 09:32:00;;;;;;;16.85;7.85;;;23.30;61.50;;;;;;4800682;29;20031;-75
2022/07/07 09:34:29;;;;;;;18.30;7.93;;;23.20;61.10;;;;;;4804099;29;20037;-76
2022/07/07 09:39:46;;;;;;;18.55;8.32;;;23.20;60.30;;;;;;4804939;29;20280;-75
2022/07/07 09:42:30;;;;;;;19.67;8.23;;;23.20;59.60;;;;;;4804778;29;20039;-75
2022/07/07 09:45:02;;;;;;;19.52;8.98;;;23.20;60.30;;;;;;4805329;29;20035;-75
2022/07/07 09:47:28;;;;;;;16.77;6.28;;;23.20;59.40;;;;;;4819654;29;20054;-75
2022/07/07 09:50:05;;;;;;;11.30;5.32;;;23.20;59.50;;;;;;4819039;29;20027;-74
2022/07/07 09:52:34;;;;;;;11.98;5.40;;;23.30;59.50;;;;;;4819340;29;20034;-74
2022/07/07 09:55:01;;;;;;;17.92;8.23;;;23.30;59.30;;;;;;4805204;29;20023;-74
2022/07/07 09:57:28;;;;;;;14.82;6.60;;;23.30;59.20;;;;;;4819465;29;20031;-74
2022/07/07 09:59:54;;;;;;;13.40;6.18;;;23.30;59.20;;;;;;4804553;29;20042;-75
2022/07/07 10:02:22;;;;;;;16.35;7.60;;;23.30;59.20;;;;;;4819487;29;20399;-75
2022/07/07 10:04:54;;;;;;;16.05;8.13;;;23.30;59.20;;;;;;4818734;29;20031;-75
2022/07/07 10:07:25;;;;;;;13.23;5.70;;;23.30;59.00;;;;;;4804069;29;20023;-75
2022/07/07 10:09:57;;;;;;;16.73;7.50;;;23.30;59.10;;;;;;4804401;29;20027;-75
2022/07/07 10:12:28;;;;;;;15.38;7.70;;;23.30;59.10;;;;;;4804402;29;20464;-75
2022/07/07 10:15:08;;;;;;;14.00;6.82;;;23.30;58.90;;;;;;4818746;29;20027;-75
2022/07/07 10:17:36;;;;;;;10.07;5.50;;;23.30;59.20;;;;;;4804824;29;20039;-75
2022/07/07 10:20:02;;;;;;;13.82;6.88;;;23.30;59.10;;;;;;4804411;29;20039;-75
2022/07/07 10:22:29;;;;;;;11.98;5.38;;;23.30;58.90;;;;;;4804950;29;20084;-75
2022/07/07 10:24:56;;;;;;;17.48;8.25;;;23.30;59.10;;;;;;4818764;29;20031;-75
2022/07/07 10:27:27;;;;;;;17.42;7.88;;;23.30;59.00;;;;;;4805181;29;20027;-75
2022/07/07 10:29:57;;;;;;;16.02;6.05;;;23.20;59.00;;;;;;4804422;29;20062;-75
2022/07/07 10:32:38;;;;;;;15.52;7.03;;;23.30;59.00;;;;;;4804750;29;20034;-75
2022/07/07 10:35:14;;;;;;;14.23;6.50;;;23.30;58.70;;;;;;4804649;29;20033;-75
2022/07/07 10:37:56;;;;;;;14.60;5.10;;;23.30;58.70;;;;;;4803497;29;20037;-75
2022/07/07 10:40:30;;;;;;;14.13;7.40;;;23.30;58.70;;;;;;4803228;29;20341;-75
2022/07/07 10:43:07;;;;;;;13.88;6.82;;;23.30;58.50;;;;;;4818927;29;20407;-76
2022/07/07 10:45:33;;;;;;;13.35;6.43;;;23.30;58.50;;;;;;4804630;29;20031;-76
2022/07/07 10:47:59;;;;;;;12.57;5.50;;;23.30;58.60;;;;;;4804456;29;20042;-75
2022/07/07 10:50:33;;;;;;;13.65;5.57;;;23.30;58.80;;;;;;4804278;29;20117;-76
2022/07/07 10:52:59;;;;;;;13.07;5.28;;;23.30;58.70;;;;;;4803685;29;20066;-75
2022/07/07 10:55:51;;;;;;;12.38;5.63;;;23.40;58.90;;;;;;4804579;29;20488;-76
2022/07/07 10:58:52;;;;;;;12.75;5.32;;;23.40;58.90;;;;;;4804527;29;20458;-76
2022/07/07 11:01:17;;;;;;;10.10;4.35;;;23.40;58.60;;;;;;4804309;29;20111;-76
2022/07/07 11:03:43;;;;;;;12.00;4.97;;;23.40;59.30;;;;;;4804571;29;20495;-76
2022/07/07 11:06:09;;;;;;;13.05;6.20;;;23.40;58.70;;;;;;4803194;29;20035;-76
2022/07/07 11:08:36;;;;;;;18.25;7.07;;;23.40;59.00;;;;;;4798322;29;20031;-76
2022/07/07 11:11:04;;;;;;;19.75;6.03;;;23.40;58.80;;;;;;4803546;29;20046;-76
2022/07/07 11:13:38;;;;;;;17.58;7.60;;;23.40;58.80;;;;;;4819011;29;20039;-76
2022/07/07 11:16:12;;;;;;;15.15;6.13;;;23.40;58.60;;;;;;4818504;29;20042;-75
2022/07/07 11:18:38;;;;;;;15.05;6.60;;;23.40;59.20;;;;;;4804138;29;20034;-75
2022/07/07 11:21:05;;;;;;;14.30;6.00;;;23.50;59.40;;;;;;4817800;29;20041;-76
2022/07/07 11:24:02;;;;;;;16.10;6.10;;;23.50;59.20;;;;;;4806995;29;20480;-76
2022/07/07 11:26:28;;;;;;;15.27;6.78;;;23.50;59.90;;;;;;4802620;29;20050;-76
2022/07/07 11:28:58;;;;;;;18.25;6.47;;;23.50;59.70;;;;;;4807477;29;20037;-75
2022/07/07 11:31:27;;;;;;;18.23;6.15;;;23.50;59.90;;;;;;4807072;29;20031;-76
2022/07/07 11:33:55;;;;;;;16.60;6.47;;;23.50;59.90;;;;;;4807527;29;20176;-75
2022/07/07 11:36:23;;;;;;;13.90;6.13;;;23.50;59.50;;;;;;4806365;29;20113;-75
2022/07/07 11:38:53;;;;;;;15.25;6.57;;;23.50;59.80;;;;;;4821234;29;20127;-75
2022/07/07 11:41:18;;;;;;;16.38;6.65;;;23.50;59.80;;;;;;4821057;29;20461;-75
2022/07/07 11:43:56;;;;;;;16.30;6.13;;;23.50;59.60;;;;;;4807489;29;20120;-75
2022/07/07 11:46:23;;;;;;;14.52;6.22;;;23.50;59.50;;;;;;4821233;29;20115;-76
2022/07/07 11:48:49;;;;;;;14.43;5.70;;;23.50;59.70;;;;;;4807298;29;20027;-74
2022/07/07 11:51:16;;;;;;;15.18;6.97;;;23.50;59.40;;;;;;4806838;29;20027;-74
2022/07/07 11:53:42;;;;;;;16.50;6.75;;;23.50;59.50;;;;;;4807248;29;20491;-75
2022/07/07 11:56:07;;;;;;;12.73;5.93;;;23.50;59.30;;;;;;4806975;29;20035;-75
2022/07/07 11:58:33;;;;;;;14.90;5.82;;;23.50;59.80;;;;;;4807103;29;20038;-75
2022/07/07 12:00:59;;;;;;;14.07;6.07;;;23.50;59.30;;;;;;4820446;29;20062;-74
2022/07/07 12:03:34;;;;;;;13.40;5.85;;;23.50;59.70;;;;;;4807177;29;20115;-75
2022/07/07 12:06:01;;;;;;;15.23;5.78;;;23.50;59.60;;;;;;4806934;29;20054;-74
2022/07/07 12:08:34;;;;;;;14.73;5.68;;;23.50;59.80;;;;;;4806933;29;20026;-75
2022/07/07 12:11:00;;;;;;;13.18;5.82;;;23.50;59.80;;;;;;4820306;29;20133;-75
2022/07/07 12:13:26;;;;;;;14.10;5.65;;;23.50;59.50;;;;;;4806967;29;20114;-75
2022/07/07 12:15:53;;;;;;;13.38;5.95;;;23.50;59.90;;;;;;4806679;29;20147;-74
2022/07/07 12:18:33;;;;;;;20.23;7.60;;;23.50;60.00;;;;;;4806740;29;20030;-74
2022/07/07 12:21:04;;;;;;;17.98;6.22;;;23.60;59.70;;;;;;4806349;29;20039;-74
2022/07/07 12:23:39;;;;;;;14.77;5.57;;;23.60;59.80;;;;;;4790981;29;20059;-74
2022/07/07 12:26:07;;;;;;;14.57;6.20;;;23.60;59.70;;;;;;4820787;29;20031;-75
2022/07/07 12:28:37;;;;;;;16.73;5.88;;;23.60;59.80;;;;;;4805692;29;20130;-75
2022/07/07 12:31:04;;;;;;;16.08;5.97;;;23.60;59.70;;;;;;4806407;29;20034;-75
2022/07/07 12:33:40;;;;;;;14.63;6.22;;;23.60;59.60;;;;;;4805733;29;20037;-75
2022/07/07 12:36:10;;;;;;;16.67;6.15;;;23.60;59.60;;;;;;4806358;29;20035;-75
2022/07/07 12:38:46;;;;;;;;;;;23.60;59.30;;;;;;4806837;29;20480;-76
2022/07/07 12:41:25;;;;;;;11.13;5.22;;;23.60;59.40;;;;;;4806267;29;19964;-75
2022/07/07 12:43:56;;;;;;;13.70;6.20;;;23.60;59.40;;;;;;4806498;29;20039;-75
2022/07/07 12:46:33;;;;;;;11.50;5.47;;;23.60;59.50;;;;;;4820518;29;20030;-75
2022/07/07 12:49:00;;;;;;;11.45;5.25;;;23.60;59.60;;;;;;4820110;29;20038;-75
2022/07/07 12:51:30;;;;;;;12.27;5.60;;;23.50;59.50;;;;;;4804944;29;20046;-75